sensor_id;sensor_type;location;lat;lon;timestamp;pressure;altitude;pressure_sealevel;temperature;humidity
9229;BME280;4649;42.644;23.284;2023-05-15T04:17:00;92892.84;;;9.97;100.00
9229;BME280;4649;42.644;23.284;2023-05-15T04:19:44;92907.34;;;10.27;100.00
9229;BME280;4649;42.644;23.284;2023-05-15T04:31:50;93045.28;;;10.16;100.00
9229;BME280;4649;42.644;23.284;2023-05-15T04:50:30;92823.44;;;9.12;100.00
9229;BME280;4649;42.644;23.284;2023-05-15T04:58:31;92813.44;;;9.57;100.00
9229;BME280;4649;42.644;23.284;2023-05-15T05:01:00;92873.66;;;9.90;100.00
9229;BME280;4649;42.644;23.284;2023-05-15T05:04:10;93011.81;;;11.17;100.00
9229;BME280;4649;42.644;23.284;2023-05-15T05:19:17;92862.09;;;9.68;100.00
9229;BME280;4649;42.644;23.284;2023-05-15T05:25:11;93011.88;;;10.74;100.00
9229;BME280;4649;42.644;23.284;2023-05-15T05:27:44;92888.19;;;10.09;100.00
9229;BME280;4649;42.644;23.284;2023-05-15T05:30:27;92879.31;;;10.35;100.00
9229;BME280;4649;42.644;23.284;2023-05-15T05:32:55;92815.16;;;9.92;100.00
9229;BME280;4649;42.644;23.284;2023-05-15T05:35:27;92900.63;;;10.83;100.00
9229;BME280;4649;42.644;23.284;2023-05-15T05:37:55;92956.34;;;11.46;100.00
9229;BME280;4649;42.644;23.284;2023-05-15T05:40:23;92994.41;;;11.80;100.00
9229;BME280;4649;42.644;23.284;2023-05-15T05:42:53;92856.19;;;10.51;100.00
9229;BME280;4649;42.644;23.284;2023-05-15T05:45:21;92851.31;;;10.22;100.00
9229;BME280;4649;42.644;23.284;2023-05-15T05:47:49;92867.03;;;10.18;100.00
9229;BME280;4649;42.644;23.284;2023-05-15T05:50:18;92946.34;;;11.13;100.00
9229;BME280;4649;42.644;23.284;2023-05-15T05:52:50;92825.72;;;10.34;100.00
9229;BME280;4649;42.644;23.284;2023-05-15T05:55:18;92825.16;;;10.57;100.00
9229;BME280;4649;42.644;23.284;2023-05-15T05:57:45;93001.53;;;11.83;100.00
9229;BME280;4649;42.644;23.284;2023-05-15T06:00:13;92883.31;;;11.13;100.00
9229;BME280;4649;42.644;23.284;2023-05-15T06:02:40;92857.84;;;11.32;100.00
9229;BME280;4649;42.644;23.284;2023-05-15T06:05:08;92994.34;;;12.31;100.00
9229;BME280;4649;42.644;23.284;2023-05-15T06:07:35;92970.56;;;12.14;100.00
9229;BME280;4649;42.644;23.284;2023-05-15T06:10:07;93012.94;;;12.57;100.00
9229;BME280;4649;42.644;23.284;2023-05-15T06:12:34;92964.78;;;12.28;100.00
9229;BME280;4649;42.644;23.284;2023-05-15T06:15:02;92944.81;;;12.25;100.00
9229;BME280;4649;42.644;23.284;2023-05-15T06:17:29;93015.25;;;12.02;100.00
9229;BME280;4649;42.644;23.284;2023-05-15T06:19:56;92919.09;;;11.62;100.00
9229;BME280;4649;42.644;23.284;2023-05-15T06:22:26;92873.91;;;10.52;100.00
9229;BME280;4649;42.644;23.284;2023-05-15T06:24:54;92996.75;;;11.33;100.00
9229;BME280;4649;42.644;23.284;2023-05-15T06:27:37;92810.75;;;10.11;100.00
9229;BME280;4649;42.644;23.284;2023-05-15T06:30:06;93001.94;;;11.31;100.00
9229;BME280;4649;42.644;23.284;2023-05-15T06:32:45;92814.84;;;10.56;100.00
9229;BME280;4649;42.644;23.284;2023-05-15T06:35:32;92996.97;;;12.08;100.00
9229;BME280;4649;42.644;23.284;2023-05-15T06:38:00;92814.75;;;11.34;100.00
9229;BME280;4649;42.644;23.284;2023-05-15T06:40:29;92838.84;;;12.13;100.00
9229;BME280;4649;42.644;23.284;2023-05-15T06:42:57;93015.91;;;13.65;100.00
9229;BME280;4649;42.644;23.284;2023-05-15T06:45:27;92923.41;;;13.28;100.00
9229;BME280;4649;42.644;23.284;2023-05-15T06:47:56;93023.22;;;13.94;100.00
9229;BME280;4649;42.644;23.284;2023-05-15T06:50:24;92853.81;;;12.24;100.00
9229;BME280;4649;42.644;23.284;2023-05-15T06:52:52;93032.97;;;13.65;100.00
9229;BME280;4649;42.644;23.284;2023-05-15T06:55:19;93020.03;;;13.95;100.00
9229;BME280;4649;42.644;23.284;2023-05-15T06:57:46;92860.88;;;13.10;100.00
9229;BME280;4649;42.644;23.284;2023-05-15T07:00:16;93030.34;;;14.57;100.00
9229;BME280;4649;42.644;23.284;2023-05-15T07:02:43;93040.03;;;14.89;100.00
9229;BME280;4649;42.644;23.284;2023-05-15T07:05:10;92943.47;;;14.04;100.00
9229;BME280;4649;42.644;23.284;2023-05-15T07:07:37;92978.72;;;14.15;100.00
9229;BME280;4649;42.644;23.284;2023-05-15T07:10:06;92958.66;;;14.18;100.00
9229;BME280;4649;42.644;23.284;2023-05-15T07:12:34;92988.59;;;14.18;100.00
9229;BME280;4649;42.644;23.284;2023-05-15T07:15:01;92947.13;;;13.28;100.00
9229;BME280;4649;42.644;23.284;2023-05-15T07:17:34;93007.38;;;12.73;100.00
9229;BME280;4649;42.644;23.284;2023-05-15T07:20:10;92826.03;;;11.84;100.00
9229;BME280;4649;42.644;23.284;2023-05-15T07:22:41;92970.53;;;12.54;100.00
9229;BME280;4649;42.644;23.284;2023-05-15T07:25:43;93028.06;;;12.87;100.00
9229;BME280;4649;42.644;23.284;2023-05-15T07:28:24;92921.88;;;12.26;100.00
9229;BME280;4649;42.644;23.284;2023-05-15T07:30:52;92925.41;;;12.45;100.00
9229;BME280;4649;42.644;23.284;2023-05-15T07:33:29;92828.25;;;11.80;100.00
9229;BME280;4649;42.644;23.284;2023-05-15T07:36:01;92899.69;;;12.22;100.00
9229;BME280;4649;42.644;23.284;2023-05-15T07:38:40;92798.81;;;11.25;100.00
9229;BME280;4649;42.644;23.284;2023-05-15T07:41:10;93018.75;;;13.06;100.00
9229;BME280;4649;42.644;23.284;2023-05-15T07:43:52;93024.13;;;13.12;100.00
9229;BME280;4649;42.644;23.284;2023-05-15T07:46:21;93019.91;;;12.81;100.00
9229;BME280;4649;42.644;23.284;2023-05-15T07:49:08;92908.50;;;11.99;100.00
9229;BME280;4649;42.644;23.284;2023-05-15T07:51:40;92847.53;;;11.76;100.00
9229;BME280;4649;42.644;23.284;2023-05-15T07:54:10;92830.25;;;11.39;100.00
9229;BME280;4649;42.644;23.284;2023-05-15T07:56:52;93032.75;;;12.46;100.00
9229;BME280;4649;42.644;23.284;2023-05-15T08:02:04;92808.22;;;11.13;100.00
9229;BME280;4649;42.644;23.284;2023-05-15T08:04:43;93049.97;;;12.54;100.00
9229;BME280;4649;42.644;23.284;2023-05-15T08:07:26;93055.88;;;12.58;100.00
9229;BME280;4649;42.644;23.284;2023-05-15T08:10:08;92994.59;;;12.33;100.00
9229;BME280;4649;42.644;23.284;2023-05-15T08:12:36;93049.28;;;13.18;100.00
9229;BME280;4649;42.644;23.284;2023-05-15T08:15:10;92927.22;;;12.37;100.00
9229;BME280;4649;42.644;23.284;2023-05-15T08:17:39;92999.13;;;12.89;100.00
9229;BME280;4649;42.644;23.284;2023-05-15T08:20:16;92852.38;;;12.18;100.00
9229;BME280;4649;42.644;23.284;2023-05-15T08:22:44;92950.25;;;12.84;100.00
9229;BME280;4649;42.644;23.284;2023-05-15T08:25:13;92960.53;;;12.67;100.00
9229;BME280;4649;42.644;23.284;2023-05-15T08:27:45;92846.78;;;11.76;100.00
9229;BME280;4649;42.644;23.284;2023-05-15T08:30:16;92965.41;;;12.45;100.00
9229;BME280;4649;42.644;23.284;2023-05-15T08:33:18;92817.63;;;11.53;100.00
9229;BME280;4649;42.644;23.284;2023-05-15T08:35:58;92993.31;;;13.04;100.00
9229;BME280;4649;42.644;23.284;2023-05-15T08:38:39;92842.66;;;11.99;100.00
9229;BME280;4649;42.644;23.284;2023-05-15T08:41:11;92894.88;;;12.39;100.00
9229;BME280;4649;42.644;23.284;2023-05-15T08:44:11;92831.91;;;11.88;100.00
9229;BME280;4649;42.644;23.284;2023-05-15T08:47:00;93048.69;;;13.25;100.00
9229;BME280;4649;42.644;23.284;2023-05-15T08:49:53;92962.09;;;12.57;100.00
9229;BME280;4649;42.644;23.284;2023-05-15T08:52:43;93031.50;;;12.82;100.00
9229;BME280;4649;42.644;23.284;2023-05-15T08:55:35;93022.31;;;12.90;100.00
9229;BME280;4649;42.644;23.284;2023-05-15T08:58:48;93020.88;;;12.89;100.00
9229;BME280;4649;42.644;23.284;2023-05-15T09:02:08;93023.38;;;12.76;100.00
9229;BME280;4649;42.644;23.284;2023-05-15T09:11:42;92928.19;;;12.05;100.00
9229;BME280;4649;42.644;23.284;2023-05-15T09:14:42;92859.56;;;11.81;100.00
9229;BME280;4649;42.644;23.284;2023-05-15T09:17:47;93010.50;;;12.53;100.00
9229;BME280;4649;42.644;23.284;2023-05-15T09:34:31;92994.97;;;12.83;100.00
9229;BME280;4649;42.644;23.284;2023-05-15T09:37:08;92762.41;;;11.15;100.00
9229;BME280;4649;42.644;23.284;2023-05-15T09:40:12;92894.66;;;12.37;100.00
9229;BME280;4649;42.644;23.284;2023-05-15T09:48:27;92857.06;;;12.71;100.00
9229;BME280;4649;42.644;23.284;2023-05-15T09:51:04;92818.66;;;12.37;100.00
9229;BME280;4649;42.644;23.284;2023-05-15T09:53:50;92751.81;;;11.87;100.00
9229;BME280;4649;42.644;23.284;2023-05-15T09:56:44;92959.56;;;13.41;100.00
9229;BME280;4649;42.644;23.284;2023-05-15T09:59:16;92829.97;;;12.89;100.00
9229;BME280;4649;42.644;23.284;2023-05-15T10:01:48;92916.47;;;13.69;100.00
9229;BME280;4649;42.644;23.284;2023-05-15T10:04:19;92960.25;;;14.08;100.00
9229;BME280;4649;42.644;23.284;2023-05-15T10:06:50;92901.59;;;13.34;100.00
9229;BME280;4649;42.644;23.284;2023-05-15T10:09:20;92891.31;;;13.27;100.00
9229;BME280;4649;42.644;23.284;2023-05-15T10:11:52;92880.72;;;13.41;100.00
9229;BME280;4649;42.644;23.284;2023-05-15T10:14:21;92925.59;;;13.90;100.00
9229;BME280;4649;42.644;23.284;2023-05-15T10:16:49;92969.97;;;14.22;100.00
9229;BME280;4649;42.644;23.284;2023-05-15T10:19:18;92980.63;;;14.20;100.00
9229;BME280;4649;42.644;23.284;2023-05-15T10:21:53;92802.78;;;13.31;100.00
9229;BME280;4649;42.644;23.284;2023-05-15T10:24:22;92858.25;;;13.78;100.00
9229;BME280;4649;42.644;23.284;2023-05-15T10:26:52;92971.22;;;14.70;100.00
9229;BME280;4649;42.644;23.284;2023-05-15T10:29:22;92982.56;;;14.87;100.00
9229;BME280;4649;42.644;23.284;2023-05-15T10:31:53;92991.41;;;14.93;100.00
9229;BME280;4649;42.644;23.284;2023-05-15T10:34:20;92945.63;;;14.73;100.00
9229;BME280;4649;42.644;23.284;2023-05-15T10:36:49;92885.91;;;14.31;100.00
9229;BME280;4649;42.644;23.284;2023-05-15T10:39:18;93010.72;;;15.08;100.00
9229;BME280;4649;42.644;23.284;2023-05-15T10:41:55;93000.84;;;15.05;100.00
9229;BME280;4649;42.644;23.284;2023-05-15T10:44:24;92982.59;;;15.00;100.00
9229;BME280;4649;42.644;23.284;2023-05-15T10:46:52;92977.38;;;15.02;100.00
9229;BME280;4649;42.644;23.284;2023-05-15T10:49:21;93009.53;;;15.35;100.00
9229;BME280;4649;42.644;23.284;2023-05-15T10:52:02;92966.91;;;15.06;100.00
9229;BME280;4649;42.644;23.284;2023-05-15T10:54:35;93009.75;;;15.50;100.00
9229;BME280;4649;42.644;23.284;2023-05-15T10:57:04;93011.00;;;15.36;100.00
9229;BME280;4649;42.644;23.284;2023-05-15T10:59:33;92916.03;;;14.83;100.00
9229;BME280;4649;42.644;23.284;2023-05-15T11:02:19;92781.50;;;12.98;100.00
9229;BME280;4649;42.644;23.284;2023-05-15T11:04:47;92963.91;;;13.74;100.00
9229;BME280;4649;42.644;23.284;2023-05-15T11:07:19;92963.50;;;13.64;100.00
9229;BME280;4649;42.644;23.284;2023-05-15T11:09:51;92988.69;;;14.25;100.00
9229;BME280;4649;42.644;23.284;2023-05-15T11:12:20;92947.53;;;14.16;100.00
9229;BME280;4649;42.644;23.284;2023-05-15T11:15:19;92981.63;;;14.54;100.00
9229;BME280;4649;42.644;23.284;2023-05-15T11:18:07;92946.91;;;14.41;100.00
9229;BME280;4649;42.644;23.284;2023-05-15T11:20:40;93006.31;;;14.24;100.00
9229;BME280;4649;42.644;23.284;2023-05-15T11:23:07;92932.00;;;14.11;100.00
9229;BME280;4649;42.644;23.284;2023-05-15T11:25:36;92863.13;;;13.48;100.00
9229;BME280;4649;42.644;23.284;2023-05-15T11:28:03;92913.19;;;13.76;100.00
9229;BME280;4649;42.644;23.284;2023-05-15T11:30:36;92998.44;;;14.21;100.00
9229;BME280;4649;42.644;23.284;2023-05-15T11:33:07;92976.22;;;14.66;100.00
9229;BME280;4649;42.644;23.284;2023-05-15T11:35:41;92981.50;;;14.46;100.00
9229;BME280;4649;42.644;23.284;2023-05-15T11:38:13;92804.22;;;14.00;100.00
9229;BME280;4649;42.644;23.284;2023-05-15T11:40:46;92904.84;;;14.05;100.00
9229;BME280;4649;42.644;23.284;2023-05-15T11:43:17;92927.41;;;14.68;100.00
9229;BME280;4649;42.644;23.284;2023-05-15T11:45:45;92838.28;;;14.38;100.00
9229;BME280;4649;42.644;23.284;2023-05-15T11:48:14;92936.19;;;15.19;100.00
9229;BME280;4649;42.644;23.284;2023-05-15T11:50:43;92972.78;;;15.10;100.00
9229;BME280;4649;42.644;23.284;2023-05-15T11:53:11;92900.94;;;15.08;100.00
9229;BME280;4649;42.644;23.284;2023-05-15T11:55:42;92946.97;;;16.01;100.00
9229;BME280;4649;42.644;23.284;2023-05-15T11:58:15;92791.09;;;15.00;100.00
9229;BME280;4649;42.644;23.284;2023-05-15T12:00:45;92951.88;;;15.57;100.00
9229;BME280;4649;42.644;23.284;2023-05-15T12:03:16;92906.31;;;15.65;100.00
9229;BME280;4649;42.644;23.284;2023-05-15T12:05:44;92962.78;;;15.70;100.00
9229;BME280;4649;42.644;23.284;2023-05-15T12:08:12;92942.13;;;16.07;100.00
9229;BME280;4649;42.644;23.284;2023-05-15T12:10:40;92955.94;;;16.35;100.00
9229;BME280;4649;42.644;23.284;2023-05-15T12:13:08;92787.63;;;15.12;100.00
9229;BME280;4649;42.644;23.284;2023-05-15T12:15:38;92942.38;;;15.96;100.00
9229;BME280;4649;42.644;23.284;2023-05-15T12:18:05;92911.47;;;15.42;100.00
9229;BME280;4649;42.644;23.284;2023-05-15T12:20:34;92925.69;;;15.74;100.00
9229;BME280;4649;42.644;23.284;2023-05-15T12:23:02;92763.72;;;14.28;100.00
9229;BME280;4649;42.644;23.284;2023-05-15T12:25:31;92798.09;;;15.08;100.00
9229;BME280;4649;42.644;23.284;2023-05-15T12:28:00;92917.13;;;16.03;100.00
9229;BME280;4649;42.644;23.284;2023-05-15T12:30:29;92816.34;;;15.26;100.00
9229;BME280;4649;42.644;23.284;2023-05-15T12:33:01;92700.50;;;14.48;100.00
9229;BME280;4649;42.644;23.284;2023-05-15T12:35:31;92846.91;;;15.58;100.00
9229;BME280;4649;42.644;23.284;2023-05-15T12:37:59;92855.50;;;15.75;100.00
9229;BME280;4649;42.644;23.284;2023-05-15T12:40:26;92885.00;;;16.43;100.00
9229;BME280;4649;42.644;23.284;2023-05-15T12:42:54;92685.84;;;15.10;100.00
9229;BME280;4649;42.644;23.284;2023-05-15T12:45:24;92790.69;;;15.55;100.00
9229;BME280;4649;42.644;23.284;2023-05-15T12:47:59;92702.56;;;14.67;100.00
9229;BME280;4649;42.644;23.284;2023-05-15T12:50:30;92738.88;;;15.22;100.00
9229;BME280;4649;42.644;23.284;2023-05-15T12:52:59;92868.75;;;16.37;100.00
9229;BME280;4649;42.644;23.284;2023-05-15T12:55:31;92810.56;;;15.76;100.00
9229;BME280;4649;42.644;23.284;2023-05-15T12:58:04;92879.31;;;16.61;97.21
9229;BME280;4649;42.644;23.284;2023-05-15T13:00:33;92823.19;;;16.32;97.30
9229;BME280;4649;42.644;23.284;2023-05-15T13:03:06;92726.72;;;15.76;95.74
9229;BME280;4649;42.644;23.284;2023-05-15T13:05:35;92850.19;;;16.63;96.26
9229;BME280;4649;42.644;23.284;2023-05-15T13:08:05;92879.59;;;16.50;98.31
9229;BME280;4649;42.644;23.284;2023-05-15T13:10:35;92740.97;;;16.02;97.97
9229;BME280;4649;42.644;23.284;2023-05-15T13:13:03;92868.13;;;16.92;97.05
9229;BME280;4649;42.644;23.284;2023-05-15T13:15:36;92878.56;;;17.01;94.31
9229;BME280;4649;42.644;23.284;2023-05-15T13:18:07;92869.16;;;17.09;94.61
9229;BME280;4649;42.644;23.284;2023-05-15T13:20:37;92677.78;;;15.98;94.59
9229;BME280;4649;42.644;23.284;2023-05-15T13:23:06;92836.53;;;17.11;94.56
9229;BME280;4649;42.644;23.284;2023-05-15T13:25:33;92782.13;;;16.45;96.22
9229;BME280;4649;42.644;23.284;2023-05-15T13:28:02;92774.94;;;16.83;94.44
9229;BME280;4649;42.644;23.284;2023-05-15T13:30:32;92865.66;;;17.65;93.85
9229;BME280;4649;42.644;23.284;2023-05-15T13:33:16;92835.91;;;17.61;92.72
9229;BME280;4649;42.644;23.284;2023-05-15T13:35:47;92816.25;;;17.77;92.44
9229;BME280;4649;42.644;23.284;2023-05-15T13:38:15;92849.63;;;18.19;90.52
9229;BME280;4649;42.644;23.284;2023-05-15T13:40:42;92822.72;;;18.10;88.53
9229;BME280;4649;42.644;23.284;2023-05-15T13:43:42;92877.78;;;18.41;89.21
9229;BME280;4649;42.644;23.284;2023-05-15T13:46:12;92845.44;;;18.25;87.84
9229;BME280;4649;42.644;23.284;2023-05-15T13:48:43;92886.25;;;18.58;89.16
9229;BME280;4649;42.644;23.284;2023-05-15T13:51:11;92856.47;;;17.90;89.44
9229;BME280;4649;42.644;23.284;2023-05-15T13:53:41;92857.06;;;17.61;91.86
9229;BME280;4649;42.644;23.284;2023-05-15T13:56:15;92829.72;;;17.68;89.71
9229;BME280;4649;42.644;23.284;2023-05-15T13:58:43;92819.72;;;17.78;89.87
9229;BME280;4649;42.644;23.284;2023-05-15T14:01:11;92856.16;;;18.16;89.51
9229;BME280;4649;42.644;23.284;2023-05-15T14:03:43;92847.91;;;18.01;91.09
9229;BME280;4649;42.644;23.284;2023-05-15T14:06:10;92892.06;;;18.47;92.65
9229;BME280;4649;42.644;23.284;2023-05-15T14:08:42;92882.94;;;18.52;89.41
9229;BME280;4649;42.644;23.284;2023-05-15T14:11:17;92883.69;;;18.60;89.22
9229;BME280;4649;42.644;23.284;2023-05-15T14:13:46;92747.03;;;17.55;88.87
9229;BME280;4649;42.644;23.284;2023-05-15T14:16:16;92882.19;;;18.37;89.08
9229;BME280;4649;42.644;23.284;2023-05-15T14:18:47;92787.38;;;17.62;89.04
9229;BME280;4649;42.644;23.284;2023-05-15T14:21:17;92852.47;;;18.06;89.95
9229;BME280;4649;42.644;23.284;2023-05-15T14:23:44;92880.81;;;18.16;90.73
9229;BME280;4649;42.644;23.284;2023-05-15T14:26:11;92853.00;;;17.97;89.27
9229;BME280;4649;42.644;23.284;2023-05-15T14:28:38;92880.34;;;17.82;89.91
9229;BME280;4649;42.644;23.284;2023-05-15T14:31:06;92873.53;;;17.68;91.50
9229;BME280;4649;42.644;23.284;2023-05-15T14:33:36;92697.16;;;16.91;92.18
9229;BME280;4649;42.644;23.284;2023-05-15T14:36:06;92865.44;;;18.05;91.18
9229;BME280;4649;42.644;23.284;2023-05-15T14:38:36;92835.81;;;17.89;90.47
9229;BME280;4649;42.644;23.284;2023-05-15T14:41:10;92767.84;;;17.22;92.29
9229;BME280;4649;42.644;23.284;2023-05-15T14:43:37;92879.50;;;18.02;92.25
9229;BME280;4649;42.644;23.284;2023-05-15T14:46:05;92865.41;;;17.98;90.82
9229;BME280;4649;42.644;23.284;2023-05-15T14:48:32;92741.56;;;17.12;92.33
9229;BME280;4649;42.644;23.284;2023-05-15T14:51:00;92800.34;;;17.26;93.43
9229;BME280;4649;42.644;23.284;2023-05-15T14:53:32;92748.97;;;16.69;95.55
9229;BME280;4649;42.644;23.284;2023-05-15T14:55:59;92724.13;;;16.59;96.23
9229;BME280;4649;42.644;23.284;2023-05-15T14:58:26;92852.31;;;17.61;96.13
9229;BME280;4649;42.644;23.284;2023-05-15T15:00:54;92773.53;;;16.97;95.40
9229;BME280;4649;42.644;23.284;2023-05-15T15:03:22;92843.13;;;17.44;95.77
9229;BME280;4649;42.644;23.284;2023-05-15T15:05:50;92669.56;;;16.19;96.85
9229;BME280;4649;42.644;23.284;2023-05-15T15:08:17;92824.38;;;17.20;97.20
9229;BME280;4649;42.644;23.284;2023-05-15T15:10:46;92699.59;;;16.39;97.89
9229;BME280;4649;42.644;23.284;2023-05-15T15:13:12;92606.13;;;15.78;96.89
9229;BME280;4649;42.644;23.284;2023-05-15T15:15:40;92788.53;;;17.03;96.07
9229;BME280;4649;42.644;23.284;2023-05-15T15:18:11;92806.34;;;17.24;95.38
9229;BME280;4649;42.644;23.284;2023-05-15T15:24:02;92607.00;;;15.73;95.64
9229;BME280;4649;42.644;23.284;2023-05-15T15:29:46;92734.00;;;16.62;97.47
9229;BME280;4649;42.644;23.284;2023-05-15T15:34:39;92721.09;;;16.22;98.56
9229;BME280;4649;42.644;23.284;2023-05-15T15:37:35;92661.44;;;15.58;99.85
9229;BME280;4649;42.644;23.284;2023-05-15T15:42:41;92586.84;;;14.81;100.00
9229;BME280;4649;42.644;23.284;2023-05-15T15:45:41;92814.78;;;16.30;100.00
9229;BME280;4649;42.644;23.284;2023-05-15T15:51:19;92825.09;;;16.24;100.00
9229;BME280;4649;42.644;23.284;2023-05-15T15:53:57;92695.03;;;15.32;100.00
9229;BME280;4649;42.644;23.284;2023-05-15T15:56:56;92710.59;;;15.45;100.00
9229;BME280;4649;42.644;23.284;2023-05-15T16:00:10;92614.84;;;14.82;100.00
9229;BME280;4649;42.644;23.284;2023-05-15T16:06:07;92618.47;;;14.97;100.00
9229;BME280;4649;42.644;23.284;2023-05-15T16:17:43;92840.59;;;16.49;98.70
9229;BME280;4649;42.644;23.284;2023-05-15T16:20:43;92762.28;;;15.84;100.00
9229;BME280;4649;42.644;23.284;2023-05-15T16:30:55;92688.94;;;14.80;100.00
9229;BME280;4649;42.644;23.284;2023-05-15T16:37:19;92654.84;;;14.15;100.00
9229;BME280;4649;42.644;23.284;2023-05-15T16:50:05;92751.81;;;14.44;100.00
9229;BME280;4649;42.644;23.284;2023-05-15T16:52:34;92739.03;;;14.39;100.00
9229;BME280;4649;42.644;23.284;2023-05-15T16:55:11;92726.47;;;14.36;100.00
9229;BME280;4649;42.644;23.284;2023-05-15T16:57:53;92776.75;;;14.73;100.00
9229;BME280;4649;42.644;23.284;2023-05-15T17:00:24;92750.22;;;13.91;100.00
9229;BME280;4649;42.644;23.284;2023-05-15T17:02:52;92666.66;;;13.60;100.00
9229;BME280;4649;42.644;23.284;2023-05-15T17:05:32;92797.88;;;14.55;100.00
9229;BME280;4649;42.644;23.284;2023-05-15T17:08:14;92804.81;;;14.68;100.00
9229;BME280;4649;42.644;23.284;2023-05-15T17:10:41;92860.19;;;15.02;100.00
9229;BME280;4649;42.644;23.284;2023-05-15T17:13:09;92747.06;;;14.31;100.00
9229;BME280;4649;42.644;23.284;2023-05-15T17:15:49;92727.63;;;13.96;100.00
9229;BME280;4649;42.644;23.284;2023-05-15T17:32:55;92864.75;;;14.81;100.00
9229;BME280;4649;42.644;23.284;2023-05-15T17:35:24;92632.28;;;13.19;100.00
9229;BME280;4649;42.644;23.284;2023-05-15T17:37:55;92867.94;;;14.10;100.00
9229;BME280;4649;42.644;23.284;2023-05-15T17:40:25;92691.59;;;12.78;100.00
9229;BME280;4649;42.644;23.284;2023-05-15T17:42:55;92881.97;;;14.14;100.00
9229;BME280;4649;42.644;23.284;2023-05-15T17:45:22;92830.81;;;13.76;100.00
9229;BME280;4649;42.644;23.284;2023-05-15T17:47:52;92717.44;;;12.84;100.00
9229;BME280;4649;42.644;23.284;2023-05-15T17:50:31;92889.09;;;13.98;100.00
9229;BME280;4649;42.644;23.284;2023-05-15T17:52:58;92842.59;;;13.65;100.00
9229;BME280;4649;42.644;23.284;2023-05-15T17:55:26;92865.66;;;13.96;100.00
9229;BME280;4649;42.644;23.284;2023-05-15T17:57:53;92903.81;;;14.27;100.00
9229;BME280;4649;42.644;23.284;2023-05-15T18:00:21;92899.38;;;14.42;100.00
9229;BME280;4649;42.644;23.284;2023-05-15T18:02:48;92883.72;;;14.30;100.00
9229;BME280;4649;42.644;23.284;2023-05-15T18:05:16;92810.41;;;13.69;100.00
9229;BME280;4649;42.644;23.284;2023-05-15T18:07:44;92714.91;;;13.41;100.00
9229;BME280;4649;42.644;23.284;2023-05-15T18:10:13;92870.88;;;13.94;100.00
9229;BME280;4649;42.644;23.284;2023-05-15T18:12:41;92875.69;;;13.51;100.00
9229;BME280;4649;42.644;23.284;2023-05-15T18:15:10;92867.97;;;13.37;100.00
9229;BME280;4649;42.644;23.284;2023-05-15T18:17:37;92728.56;;;13.05;100.00
9229;BME280;4649;42.644;23.284;2023-05-15T18:20:07;92807.25;;;13.10;100.00
9229;BME280;4649;42.644;23.284;2023-05-15T18:23:04;92856.03;;;13.58;100.00
9229;BME280;4649;42.644;23.284;2023-05-15T18:25:32;92856.50;;;13.43;100.00
9229;BME280;4649;42.644;23.284;2023-05-15T18:28:02;92862.50;;;13.73;100.00
9229;BME280;4649;42.644;23.284;2023-05-15T18:30:37;92746.09;;;12.62;100.00
9229;BME280;4649;42.644;23.284;2023-05-15T18:33:15;92808.69;;;12.93;100.00
9229;BME280;4649;42.644;23.284;2023-05-15T18:35:42;92833.63;;;13.15;100.00
9229;BME280;4649;42.644;23.284;2023-05-15T18:38:40;92749.78;;;12.82;100.00
9229;BME280;4649;42.644;23.284;2023-05-15T18:41:07;92898.41;;;13.90;100.00
9229;BME280;4649;42.644;23.284;2023-05-15T18:43:34;92895.97;;;13.87;100.00
9229;BME280;4649;42.644;23.284;2023-05-15T18:46:02;92776.63;;;12.91;100.00
9229;BME280;4649;42.644;23.284;2023-05-15T18:48:29;92835.69;;;13.46;100.00
9229;BME280;4649;42.644;23.284;2023-05-15T18:50:56;92772.09;;;12.76;100.00
9229;BME280;4649;42.644;23.284;2023-05-15T18:53:23;92900.75;;;13.62;100.00
9229;BME280;4649;42.644;23.284;2023-05-15T18:55:52;92896.53;;;13.61;100.00
9229;BME280;4649;42.644;23.284;2023-05-15T18:58:19;92827.59;;;13.04;100.00
9229;BME280;4649;42.644;23.284;2023-05-15T19:00:46;92711.53;;;12.62;100.00
9229;BME280;4649;42.644;23.284;2023-05-15T19:03:34;92739.13;;;12.66;100.00
9229;BME280;4649;42.644;23.284;2023-05-15T19:06:07;92793.06;;;12.99;100.00
9229;BME280;4649;42.644;23.284;2023-05-15T19:08:34;92910.44;;;13.95;100.00
9229;BME280;4649;42.644;23.284;2023-05-15T19:11:03;92875.72;;;13.82;100.00
9229;BME280;4649;42.644;23.284;2023-05-15T19:13:30;92879.41;;;14.03;100.00
9229;BME280;4649;42.644;23.284;2023-05-15T19:16:04;92811.66;;;13.68;100.00
9229;BME280;4649;42.644;23.284;2023-05-15T19:18:32;92791.34;;;13.69;100.00
9229;BME280;4649;42.644;23.284;2023-05-15T19:21:02;92830.81;;;14.25;100.00
9229;BME280;4649;42.644;23.284;2023-05-15T19:23:29;92908.06;;;14.85;100.00
9229;BME280;4649;42.644;23.284;2023-05-15T19:25:58;92821.97;;;14.38;100.00
9229;BME280;4649;42.644;23.284;2023-05-15T19:28:27;92879.88;;;14.95;100.00
9229;BME280;4649;42.644;23.284;2023-05-15T19:30:54;92909.66;;;15.19;100.00
9229;BME280;4649;42.644;23.284;2023-05-15T19:33:21;92801.63;;;14.26;100.00
9229;BME280;4649;42.644;23.284;2023-05-15T19:35:48;92876.94;;;14.80;100.00
9229;BME280;4649;42.644;23.284;2023-05-15T19:38:15;92920.31;;;14.91;100.00
9229;BME280;4649;42.644;23.284;2023-05-15T19:40:43;92825.88;;;14.11;100.00
9229;BME280;4649;42.644;23.284;2023-05-15T19:43:10;92841.28;;;14.21;100.00
9229;BME280;4649;42.644;23.284;2023-05-15T19:45:40;92881.50;;;14.60;100.00
9229;BME280;4649;42.644;23.284;2023-05-15T19:48:07;92851.16;;;14.24;100.00
9229;BME280;4649;42.644;23.284;2023-05-15T19:50:37;92848.38;;;14.11;100.00
9229;BME280;4649;42.644;23.284;2023-05-15T19:53:03;92934.66;;;14.79;100.00
9229;BME280;4649;42.644;23.284;2023-05-15T19:55:30;92859.63;;;14.21;100.00
9229;BME280;4649;42.644;23.284;2023-05-15T19:57:58;92805.38;;;13.92;100.00
9229;BME280;4649;42.644;23.284;2023-05-15T20:00:25;92784.97;;;13.67;100.00
9229;BME280;4649;42.644;23.284;2023-05-15T20:02:53;92745.03;;;13.43;100.00
9229;BME280;4649;42.644;23.284;2023-05-15T20:05:20;92799.56;;;13.82;100.00
9229;BME280;4649;42.644;23.284;2023-05-15T20:07:47;92806.72;;;13.67;100.00